createdAt,value
2023-03-13T00:01:17.446Z,10.83
2023-03-13T00:03:46.630Z,11.43
2023-03-13T00:06:15.624Z,10.87
2023-03-13T00:08:42.608Z,10.43
2023-03-13T00:11:10.996Z,10.77
2023-03-13T00:13:40.376Z,10.77
2023-03-13T00:16:19.021Z,10.77
2023-03-13T00:18:49.870Z,12.27
2023-03-13T00:21:20.324Z,10.47
2023-03-13T00:23:47.320Z,10.50
2023-03-13T00:26:16.414Z,9.97
2023-03-13T00:28:46.192Z,10.20
2023-03-13T00:31:16.715Z,9.27
2023-03-13T00:33:49.944Z,9.77
2023-03-13T00:36:18.639Z,9.57
2023-03-13T00:38:50.159Z,9.67
2023-03-13T00:41:24.024Z,9.53
2023-03-13T00:43:53.412Z,9.20
2023-03-13T00:46:21.773Z,8.70
2023-03-13T00:48:48.782Z,9.20
2023-03-13T00:51:16.228Z,8.73
2023-03-13T00:53:46.112Z,7.60
2023-03-13T00:56:14.111Z,7.67
2023-03-13T00:58:41.718Z,7.87
2023-03-13T01:01:12.767Z,8.20
2023-03-13T01:03:42.697Z,7.73
2023-03-13T01:06:13.822Z,7.77
2023-03-13T01:08:40.636Z,7.73
2023-03-13T01:11:09.084Z,7.80
2023-03-13T01:13:35.947Z,7.77
2023-03-13T01:16:15.712Z,7.33
2023-03-13T01:18:46.375Z,7.63
2023-03-13T01:21:13.511Z,7.13
2023-03-13T01:23:40.302Z,7.03
2023-03-13T01:26:07.812Z,7.53
2023-03-13T01:28:34.904Z,7.20
2023-03-13T01:31:01.853Z,6.80
2023-03-13T01:33:28.715Z,6.50
2023-03-13T01:36:04.011Z,7.60
2023-03-13T01:38:30.912Z,7.23
2023-03-13T01:41:00.148Z,7.13
2023-03-13T01:43:30.912Z,7.27
2023-03-13T01:46:00.497Z,7.43
2023-03-13T01:48:39.072Z,7.30
2023-03-13T01:51:22.906Z,7.30
2023-03-13T01:54:15.772Z,8.10
2023-03-13T01:56:53.394Z,8.07
2023-03-13T01:59:32.754Z,8.10
2023-03-13T02:02:02.962Z,7.97
2023-03-13T02:04:32.101Z,7.97
2023-03-13T02:07:03.151Z,7.97
2023-03-13T02:09:30.442Z,7.67
2023-03-13T02:12:12.837Z,8.00
2023-03-13T02:14:42.613Z,8.33
2023-03-13T02:17:09.468Z,8.47
2023-03-13T02:19:48.319Z,8.33
2023-03-13T02:22:18.043Z,9.00
2023-03-13T02:25:06.605Z,8.70
2023-03-13T02:27:33.392Z,8.37
2023-03-13T02:30:00.165Z,8.80
2023-03-13T02:32:27.573Z,8.63
2023-03-13T02:34:56.669Z,8.43
2023-03-13T02:37:24.595Z,8.80
2023-03-13T02:39:53.566Z,8.20
2023-03-13T02:42:20.412Z,8.23
2023-03-13T02:44:47.470Z,8.73
2023-03-13T02:47:23.861Z,8.93
2023-03-13T02:49:52.798Z,8.23
2023-03-13T02:52:31.852Z,9.17
2023-03-13T02:55:03.484Z,9.07
2023-03-13T02:57:31.767Z,8.60
2023-03-13T02:59:58.633Z,9.03
2023-03-13T03:02:25.493Z,8.43
2023-03-13T03:04:52.245Z,8.43
2023-03-13T03:07:19.014Z,8.73
2023-03-13T03:09:45.801Z,8.40
2023-03-13T03:12:14.810Z,9.50
2023-03-13T03:14:43.695Z,9.20
2023-03-13T03:17:10.501Z,8.70
2023-03-13T03:19:37.261Z,9.07
2023-03-13T03:22:06.241Z,9.20
2023-03-13T03:24:33.042Z,8.97
2023-03-13T03:26:59.799Z,8.57
2023-03-13T03:29:27.874Z,8.87
2023-03-13T03:31:54.944Z,8.10
2023-03-13T03:34:24.266Z,9.27
2023-03-13T03:36:51.192Z,9.03
2023-03-13T03:39:17.956Z,8.63
2023-03-13T03:41:44.718Z,9.23
2023-03-13T03:44:14.132Z,8.60
2023-03-13T03:46:41.034Z,9.53
2023-03-13T03:49:10.128Z,9.73
2023-03-13T03:51:36.869Z,9.00
2023-03-13T03:54:03.723Z,8.70
2023-03-13T03:56:30.493Z,8.93
2023-03-13T03:58:59.821Z,8.60
2023-03-13T04:01:26.731Z,9.23
2023-03-13T04:03:53.505Z,9.43
2023-03-13T04:06:22.542Z,8.73
2023-03-13T04:08:49.354Z,8.53
2023-03-13T04:11:18.345Z,8.87
2023-03-13T04:13:45.135Z,8.90
2023-03-13T04:16:14.364Z,9.47
2023-03-13T04:18:43.285Z,9.23
2023-03-13T04:21:12.350Z,8.70
2023-03-13T04:23:39.104Z,8.70
2023-03-13T04:26:05.904Z,9.23
2023-03-13T04:28:32.681Z,9.43
2023-03-13T04:31:00.515Z,8.87
2023-03-13T04:33:27.449Z,9.03
2023-03-13T04:35:54.270Z,9.73
2023-03-13T04:38:23.224Z,9.13
2023-03-13T04:40:49.991Z,9.70
2023-03-13T04:43:19.160Z,9.93
2023-03-13T04:45:46.650Z,10.20
2023-03-13T04:48:13.519Z,9.63
2023-03-13T04:50:40.336Z,10.90
2023-03-13T04:53:07.142Z,10.20
2023-03-13T04:55:33.932Z,10.43
2023-03-13T04:58:00.679Z,10.93
2023-03-13T05:00:27.467Z,10.77
2023-03-13T05:02:54.279Z,9.80
2023-03-13T05:05:23.247Z,11.27
2023-03-13T05:07:52.523Z,11.10
2023-03-13T05:10:19.402Z,10.77
2023-03-13T05:12:46.166Z,10.87
2023-03-13T05:15:15.052Z,10.50
2023-03-13T05:17:41.849Z,11.17
2023-03-13T05:20:11.277Z,10.70
2023-03-13T05:22:38.599Z,10.43
2023-03-13T05:25:05.915Z,11.20
2023-03-13T05:27:32.716Z,11.33
2023-03-13T05:30:04.241Z,10.73
2023-03-13T05:32:31.048Z,10.40
2023-03-13T05:35:00.434Z,11.43
2023-03-13T05:37:27.201Z,10.73
2023-03-13T05:39:53.973Z,10.80
2023-03-13T05:42:23.193Z,11.13
2023-03-13T05:44:49.952Z,11.50
2023-03-13T05:47:19.002Z,11.53
2023-03-13T05:49:45.772Z,10.50
2023-03-13T05:52:12.594Z,11.13
2023-03-13T05:54:39.383Z,11.73
2023-03-13T05:57:06.185Z,11.17
2023-03-13T05:59:32.980Z,12.03
2023-03-13T06:01:59.750Z,12.10
2023-03-13T06:04:26.764Z,12.20
2023-03-13T06:06:53.604Z,12.73
2023-03-13T06:09:20.548Z,11.67
2023-03-13T06:11:47.339Z,13.27
2023-03-13T06:14:16.579Z,12.77
2023-03-13T06:16:43.390Z,12.73
2023-03-13T06:19:12.641Z,12.90
2023-03-13T06:21:39.520Z,12.57
2023-03-13T06:24:08.825Z,13.63
2023-03-13T06:26:35.574Z,13.60
2023-03-13T06:29:04.599Z,13.40
2023-03-13T06:31:31.804Z,14.47
2023-03-13T06:34:01.083Z,13.80
2023-03-13T06:36:27.895Z,13.80
2023-03-13T06:38:56.813Z,15.40
2023-03-13T06:41:25.808Z,14.63
2023-03-13T06:43:55.068Z,13.67
2023-03-13T06:46:26.173Z,14.07
2023-03-13T06:48:53.103Z,14.03
2023-03-13T06:51:23.100Z,14.30
2023-03-13T06:53:50.049Z,13.40
2023-03-13T06:56:19.009Z,13.70
2023-03-13T06:58:49.230Z,14.20
2023-03-13T07:01:19.129Z,12.97
2023-03-13T07:03:47.715Z,13.40
2023-03-13T07:06:14.553Z,12.50
2023-03-13T07:08:41.310Z,12.77
2023-03-13T07:11:11.741Z,12.57
2023-03-13T07:13:38.621Z,14.00
2023-03-13T07:16:12.227Z,14.50
2023-03-13T07:18:47.334Z,13.33
2023-03-13T07:21:14.453Z,13.93
2023-03-13T07:23:41.377Z,13.30
2023-03-13T07:26:12.812Z,13.90
2023-03-13T07:28:39.974Z,13.83
2023-03-13T07:31:07.570Z,13.13
2023-03-13T07:33:36.816Z,13.20
2023-03-13T07:36:06.351Z,12.97
2023-03-13T07:38:35.493Z,12.87
2023-03-13T07:41:04.753Z,12.90
2023-03-13T07:43:34.078Z,12.80
2023-03-13T07:46:07.631Z,12.00
2023-03-13T07:48:38.645Z,11.70
2023-03-13T07:51:09.977Z,12.40
2023-03-13T07:53:36.879Z,11.93
2023-03-13T07:56:22.813Z,12.27
2023-03-13T07:58:49.892Z,12.00
2023-03-13T08:01:17.516Z,11.37
2023-03-13T08:03:49.223Z,11.63
2023-03-13T08:06:17.222Z,12.67
2023-03-13T08:08:44.079Z,12.57
2023-03-13T08:11:11.630Z,12.00
2023-03-13T08:13:38.491Z,11.93
2023-03-13T08:16:07.965Z,11.67
2023-03-13T08:18:35.302Z,12.07
2023-03-13T08:21:06.278Z,11.50
2023-03-13T08:23:33.299Z,11.73
2023-03-13T08:26:08.280Z,12.07
2023-03-13T08:28:35.376Z,11.67
2023-03-13T08:31:12.982Z,11.83
2023-03-13T08:33:40.320Z,11.03
2023-03-13T08:36:25.067Z,12.00
2023-03-13T08:38:58.184Z,11.20
2023-03-13T08:41:26.882Z,11.13
2023-03-13T08:43:54.121Z,11.30
2023-03-13T08:46:22.458Z,14.97
2023-03-13T08:48:53.011Z,11.53
2023-03-13T08:51:24.771Z,11.07
2023-03-13T08:53:56.056Z,11.63
2023-03-13T08:56:26.402Z,10.80
2023-03-13T08:58:57.057Z,10.40
2023-03-13T09:01:24.970Z,11.13
2023-03-13T09:03:52.589Z,10.10
2023-03-13T09:06:19.600Z,10.17
2023-03-13T09:08:48.522Z,9.90
2023-03-13T09:11:20.456Z,10.27
2023-03-13T09:13:50.271Z,9.60
2023-03-13T09:16:24.081Z,9.67
2023-03-13T09:18:53.699Z,8.40
2023-03-13T09:21:22.175Z,8.33
2023-03-13T09:23:49.218Z,8.60
2023-03-13T09:26:19.244Z,8.07
2023-03-13T09:28:47.261Z,7.77
2023-03-13T09:31:23.301Z,7.17
2023-03-13T09:33:50.508Z,8.00
2023-03-13T09:36:22.087Z,7.33
2023-03-13T09:38:50.623Z,7.50
2023-03-13T09:41:19.645Z,6.93
2023-03-13T09:44:22.370Z,6.93
2023-03-13T09:47:01.929Z,7.10
2023-03-13T09:49:37.022Z,6.40
2023-03-13T09:52:09.910Z,6.40
2023-03-13T09:54:38.761Z,6.97
2023-03-13T09:57:23.712Z,6.80
2023-03-13T09:59:58.013Z,5.97
2023-03-13T10:02:32.006Z,6.20
2023-03-13T10:05:02.095Z,5.33
2023-03-13T10:07:28.921Z,5.70
2023-03-13T10:09:55.685Z,5.50
2023-03-13T10:12:28.636Z,5.53
2023-03-13T10:15:20.492Z,5.10
2023-03-13T10:17:47.342Z,5.83
2023-03-13T10:20:25.695Z,5.90
2023-03-13T10:22:58.554Z,5.90
2023-03-13T10:25:29.283Z,5.53
2023-03-13T10:27:56.231Z,5.80
2023-03-13T10:30:35.410Z,5.47
2023-03-13T10:33:05.217Z,5.73
2023-03-13T10:35:34.304Z,5.20
2023-03-13T10:38:06.859Z,5.97
2023-03-13T10:40:33.886Z,5.47
2023-03-13T10:43:05.929Z,5.67
2023-03-13T10:45:35.587Z,5.57
2023-03-13T10:48:21.363Z,5.27
2023-03-13T10:50:51.982Z,5.40
2023-03-13T10:53:33.204Z,5.00
2023-03-13T10:56:18.644Z,4.63
2023-03-13T10:58:47.345Z,5.90
2023-03-13T11:01:24.489Z,6.07
2023-03-13T11:03:52.973Z,6.30
2023-03-13T11:06:35.478Z,5.17
2023-03-13T11:09:15.217Z,5.83
2023-03-13T11:11:54.575Z,5.03
2023-03-13T11:14:22.876Z,5.10
2023-03-13T11:16:52.052Z,5.30
2023-03-13T11:19:44.946Z,4.90
2023-03-13T11:22:14.819Z,4.90
2023-03-13T11:24:44.886Z,4.93
2023-03-13T11:27:26.596Z,5.50
2023-03-13T11:30:28.775Z,4.93
2023-03-13T11:33:02.793Z,5.00
2023-03-13T11:35:42.843Z,4.67
2023-03-13T11:38:20.053Z,5.23
2023-03-13T11:41:00.381Z,5.17
2023-03-13T11:43:45.293Z,4.97
2023-03-13T11:46:37.359Z,5.13
2023-03-13T11:49:45.116Z,4.80
2023-03-13T11:52:39.093Z,5.00
2023-03-13T11:55:26.954Z,5.73
2023-03-13T11:58:00.703Z,5.27
2023-03-13T12:00:37.943Z,4.93
2023-03-13T12:03:40.882Z,4.90
2023-03-13T12:06:25.643Z,4.77
2023-03-13T12:09:00.346Z,5.57
2023-03-13T12:11:29.109Z,5.13
2023-03-13T12:13:58.250Z,4.83
2023-03-13T12:16:31.533Z,5.60
2023-03-13T12:19:00.650Z,4.90
2023-03-13T12:21:53.321Z,4.83
2023-03-13T12:24:38.390Z,4.93
2023-03-13T12:27:10.343Z,5.43
2023-03-13T12:30:00.626Z,4.83
2023-03-13T12:32:29.787Z,5.10
2023-03-13T12:35:00.911Z,4.67
2023-03-13T12:37:47.564Z,5.20
2023-03-13T12:40:23.622Z,5.03
2023-03-13T12:43:20.329Z,4.37
2023-03-13T12:45:59.506Z,4.53
2023-03-13T12:48:44.695Z,4.80
2023-03-13T12:51:49.047Z,4.73
2023-03-13T12:54:40.630Z,5.80
2023-03-13T12:57:25.637Z,5.27
2023-03-13T12:59:56.734Z,5.57
2023-03-13T13:02:28.653Z,5.27
2023-03-13T13:04:56.052Z,4.47
2023-03-13T13:07:30.467Z,5.60
2023-03-13T13:10:09.463Z,5.57
2023-03-13T13:12:42.005Z,4.83
2023-03-13T13:15:26.279Z,5.43
2023-03-13T13:17:58.301Z,4.67
2023-03-13T13:20:35.177Z,4.90
2023-03-13T13:23:27.260Z,5.20
2023-03-13T13:25:55.660Z,5.53
2023-03-13T13:28:26.501Z,5.40
2023-03-13T13:30:55.962Z,4.80
2023-03-13T13:33:35.180Z,5.27
2023-03-13T13:36:10.883Z,5.50
2023-03-13T13:38:43.944Z,4.97
2023-03-13T13:41:10.663Z,5.30
2023-03-13T13:43:47.913Z,5.53
2023-03-13T13:46:24.565Z,5.70
2023-03-13T13:49:07.614Z,5.60
2023-03-13T13:51:34.990Z,5.23
2023-03-13T13:54:04.583Z,5.87
2023-03-13T13:56:41.141Z,5.77
2023-03-13T13:59:26.873Z,5.17
2023-03-13T14:02:10.432Z,6.20
2023-03-13T14:05:00.262Z,6.20
2023-03-13T14:07:49.462Z,5.53
2023-03-13T14:10:37.014Z,5.97
2023-03-13T14:13:14.336Z,5.50
2023-03-13T14:15:46.119Z,5.47
2023-03-13T14:18:29.137Z,5.20
2023-03-13T14:21:13.500Z,5.73
2023-03-13T14:23:46.622Z,5.50
2023-03-13T14:26:24.623Z,6.13
2023-03-13T14:28:59.017Z,5.43
2023-03-13T14:31:36.573Z,5.73
2023-03-13T14:34:05.294Z,5.77
2023-03-13T14:36:45.776Z,6.27
2023-03-13T14:39:32.209Z,5.33
2023-03-13T14:42:05.941Z,5.07
2023-03-13T14:44:36.532Z,5.60
2023-03-13T14:47:17.163Z,5.30
2023-03-13T14:49:46.592Z,5.30
2023-03-13T14:52:25.578Z,6.07
2023-03-13T14:54:57.281Z,6.33
2023-03-13T14:57:27.706Z,5.63
2023-03-13T14:59:55.170Z,5.47
2023-03-13T15:02:32.411Z,4.97
2023-03-13T15:05:01.186Z,5.10
2023-03-13T15:07:41.818Z,5.40
2023-03-13T15:10:25.331Z,5.03
2023-03-13T15:12:52.527Z,5.47
2023-03-13T15:15:19.344Z,4.50
2023-03-13T15:17:48.271Z,5.00
2023-03-13T15:20:17.620Z,5.33
2023-03-13T15:22:45.234Z,4.90
2023-03-13T15:25:21.600Z,4.73
2023-03-13T15:27:48.732Z,5.03
2023-03-13T15:30:17.150Z,4.23
2023-03-13T15:32:47.004Z,5.07
2023-03-13T15:35:32.866Z,5.00
2023-03-13T15:38:00.918Z,4.40
2023-03-13T15:40:28.280Z,4.47
2023-03-13T15:42:55.382Z,5.27
2023-03-13T15:45:24.393Z,4.47
2023-03-13T15:47:53.694Z,4.97
2023-03-13T15:50:29.555Z,5.03
2023-03-13T15:53:00.842Z,4.53
2023-03-13T15:55:29.786Z,5.13
2023-03-13T15:57:56.546Z,4.73
2023-03-13T16:00:28.103Z,4.50
2023-03-13T16:02:57.389Z,5.00
2023-03-13T16:05:26.674Z,4.90
2023-03-13T16:07:53.487Z,4.77
2023-03-13T16:10:27.485Z,4.87
2023-03-13T16:12:54.579Z,4.83
2023-03-13T16:15:21.456Z,4.37
2023-03-13T16:17:50.693Z,4.70
2023-03-13T16:20:18.879Z,4.97
2023-03-13T16:22:45.842Z,4.53
2023-03-13T16:25:20.769Z,5.00
2023-03-13T16:27:50.211Z,5.30
2023-03-13T16:30:23.747Z,4.87
2023-03-13T16:32:52.834Z,5.10
2023-03-13T16:35:19.731Z,5.60
2023-03-13T16:37:48.633Z,4.57
2023-03-13T16:40:19.973Z,4.53
2023-03-13T16:42:46.889Z,5.33
2023-03-13T16:45:14.557Z,5.10
2023-03-13T16:47:44.177Z,5.03
2023-03-13T16:50:25.737Z,5.10
2023-03-13T16:52:58.214Z,5.77
2023-03-13T16:55:28.287Z,5.53
2023-03-13T16:57:59.089Z,5.17
2023-03-13T17:00:27.795Z,5.53
2023-03-13T17:02:55.095Z,5.93
2023-03-13T17:05:27.134Z,5.60
2023-03-13T17:07:54.312Z,5.67
2023-03-13T17:10:28.162Z,5.53
2023-03-13T17:12:55.013Z,5.23
2023-03-13T17:15:22.083Z,5.30
2023-03-13T17:17:52.715Z,5.10
2023-03-13T17:20:24.410Z,5.90
2023-03-13T17:22:51.246Z,6.10
2023-03-13T17:25:18.122Z,5.33
2023-03-13T17:27:47.440Z,5.67
2023-03-13T17:30:30.356Z,5.67
2023-03-13T17:32:57.364Z,5.00
2023-03-13T17:35:24.532Z,5.70
2023-03-13T17:37:51.285Z,5.10
2023-03-13T17:40:26.733Z,5.10
2023-03-13T17:42:53.547Z,5.70
2023-03-13T17:45:20.365Z,5.57
2023-03-13T17:47:50.347Z,5.43
2023-03-13T17:50:26.423Z,5.67
2023-03-13T17:52:55.910Z,5.83
2023-03-13T17:55:25.297Z,5.50
2023-03-13T17:57:54.314Z,4.93
2023-03-13T18:00:23.335Z,5.33
2023-03-13T18:02:52.324Z,4.90
2023-03-13T18:05:19.238Z,5.67
2023-03-13T18:07:46.183Z,5.63
2023-03-13T18:10:26.901Z,5.33
2023-03-13T18:12:56.355Z,5.90
2023-03-13T18:15:24.236Z,5.53
2023-03-13T18:17:51.184Z,5.37
2023-03-13T18:20:20.190Z,5.17
2023-03-13T18:22:47.182Z,5.77
2023-03-13T18:25:14.040Z,4.90
2023-03-13T18:27:40.894Z,4.83
2023-03-13T18:30:16.607Z,5.17
2023-03-13T18:32:46.027Z,5.20
2023-03-13T18:35:15.046Z,5.57
2023-03-13T18:37:42.797Z,5.43
2023-03-13T18:40:18.350Z,5.50
2023-03-13T18:42:50.698Z,5.37
2023-03-13T18:45:19.505Z,6.33
2023-03-13T18:47:48.183Z,5.20
2023-03-13T18:50:29.201Z,5.17
2023-03-13T18:52:59.046Z,5.47
2023-03-13T18:55:26.860Z,5.17
2023-03-13T18:57:56.028Z,5.63
2023-03-13T19:00:27.629Z,5.70
2023-03-13T19:02:54.570Z,5.40
2023-03-13T19:05:21.404Z,6.07
2023-03-13T19:07:48.226Z,5.40
2023-03-13T19:10:26.462Z,6.13
2023-03-13T19:12:53.864Z,5.50
2023-03-13T19:15:21.982Z,6.07
2023-03-13T19:17:48.830Z,4.70
2023-03-13T19:20:17.525Z,4.73
2023-03-13T19:22:44.431Z,5.13
2023-03-13T19:25:11.612Z,5.03
2023-03-13T19:27:40.700Z,4.93
2023-03-13T19:30:19.951Z,5.13
2023-03-13T19:32:46.867Z,5.20
2023-03-13T19:35:13.863Z,5.20
2023-03-13T19:37:40.707Z,5.27
2023-03-13T19:40:22.204Z,4.90
2023-03-13T19:42:51.208Z,5.13
2023-03-13T19:45:19.079Z,5.67
2023-03-13T19:47:46.005Z,5.60
2023-03-13T19:50:18.195Z,5.60
2023-03-13T19:52:47.205Z,6.13
2023-03-13T19:55:14.046Z,5.80
2023-03-13T19:57:40.956Z,6.13
2023-03-13T20:00:14.045Z,6.10
2023-03-13T20:02:42.959Z,5.90
2023-03-13T20:05:10.437Z,5.70
2023-03-13T20:07:37.568Z,5.80
2023-03-13T20:10:07.096Z,6.40
2023-03-13T20:12:35.296Z,5.97
2023-03-13T20:15:02.138Z,5.90
2023-03-13T20:17:31.065Z,6.23
2023-03-13T20:19:57.830Z,6.47
2023-03-13T20:22:24.637Z,6.20
2023-03-13T20:24:56.002Z,5.77
2023-03-13T20:27:25.406Z,5.73
2023-03-13T20:29:56.728Z,5.57
2023-03-13T20:32:28.157Z,5.73
2023-03-13T20:34:54.979Z,5.93
2023-03-13T20:37:23.925Z,6.20
2023-03-13T20:39:50.692Z,6.20
2023-03-13T20:42:20.900Z,6.37
2023-03-13T20:44:50.239Z,5.90
2023-03-13T20:47:19.554Z,6.10
2023-03-13T20:49:46.366Z,5.63
2023-03-13T20:52:15.278Z,6.10
2023-03-13T20:54:42.070Z,5.93
2023-03-13T20:57:09.719Z,6.30
2023-03-13T20:59:36.602Z,6.03
2023-03-13T21:02:06.581Z,5.90
2023-03-13T21:04:35.980Z,5.13
2023-03-13T21:07:04.765Z,5.50
2023-03-13T21:09:32.382Z,5.57
2023-03-13T21:12:03.523Z,5.70
2023-03-13T21:14:30.522Z,5.20
2023-03-13T21:16:57.350Z,5.40
2023-03-13T21:19:24.107Z,5.13
2023-03-13T21:21:52.135Z,5.60
2023-03-13T21:24:23.490Z,5.40
2023-03-13T21:26:50.268Z,5.57
2023-03-13T21:29:17.046Z,5.33
2023-03-13T21:31:46.172Z,5.40
2023-03-13T21:34:12.961Z,6.10
2023-03-13T21:36:41.955Z,5.80
2023-03-13T21:39:12.174Z,6.00
2023-03-13T21:41:38.973Z,5.77
2023-03-13T21:44:05.860Z,5.47
2023-03-13T21:46:35.704Z,5.97
2023-03-13T21:49:02.529Z,6.07
2023-03-13T21:51:29.353Z,5.60
2023-03-13T21:53:56.260Z,6.33
2023-03-13T21:56:23.140Z,6.50
2023-03-13T21:58:52.415Z,6.10
2023-03-13T22:01:21.835Z,6.67
2023-03-13T22:03:50.902Z,6.00
2023-03-13T22:06:19.299Z,6.20
2023-03-13T22:08:47.153Z,6.43
2023-03-13T22:11:14.234Z,5.73
2023-03-13T22:13:41.050Z,6.67
2023-03-13T22:16:13.008Z,6.00
2023-03-13T22:18:40.726Z,6.10
2023-03-13T22:21:07.686Z,6.33
2023-03-13T22:23:34.530Z,6.10
2023-03-13T22:26:01.364Z,6.33
2023-03-13T22:28:32.979Z,6.13
2023-03-13T22:31:01.237Z,6.30
2023-03-13T22:33:30.489Z,6.50
2023-03-13T22:35:57.454Z,5.73
2023-03-13T22:38:26.685Z,5.90
2023-03-13T22:41:01.150Z,6.00
2023-03-13T22:43:28.116Z,5.53
2023-03-13T22:45:55.923Z,5.77
2023-03-13T22:48:22.831Z,5.80
2023-03-13T22:51:01.690Z,6.37
2023-03-13T22:53:28.622Z,5.73
2023-03-13T22:55:55.439Z,6.87
2023-03-13T22:58:22.274Z,6.00
2023-03-13T23:00:49.108Z,5.70
2023-03-13T23:03:17.719Z,6.07
2023-03-13T23:05:47.572Z,5.80
2023-03-13T23:08:17.284Z,5.80
2023-03-13T23:10:47.605Z,6.00
2023-03-13T23:13:16.943Z,6.07
2023-03-13T23:15:58.919Z,6.60
2023-03-13T23:18:26.523Z,6.17
2023-03-13T23:20:53.566Z,6.40
2023-03-13T23:23:20.458Z,6.80
2023-03-13T23:25:47.290Z,5.67
2023-03-13T23:28:14.311Z,5.97
2023-03-13T23:30:41.215Z,6.03
2023-03-13T23:33:10.480Z,6.37
2023-03-13T23:35:38.080Z,7.00
2023-03-13T23:38:04.936Z,6.30
2023-03-13T23:40:34.417Z,6.37
2023-03-13T23:43:01.353Z,6.40
2023-03-13T23:45:28.138Z,6.17
2023-03-13T23:47:55.086Z,6.23
2023-03-13T23:50:22.257Z,6.00
2023-03-13T23:52:49.058Z,6.40
2023-03-13T23:55:15.950Z,6.23
2023-03-13T23:57:48.134Z,6.23
